Terminal Aerodrome Forecast
Issued by NWS Milwaukee/Sullivan, WI

Home | Current Version | Previous Version | Text Only | Print | Product List | Glossary On
Versions: 1 2 3 4 5 6 7 8 9 10 11 12 13 14 15 16 17 18 19 20 21 22 23 24 25 26 27
000
FTUS43 KMKX 170931 AAA
TAFMKE
TAF AMD
KMKE 170931Z 1710/1812 19010KT P6SM -SHRA SCT012 OVC020
     FM171200 20009KT P6SM OVC020
     FM171500 21010KT P6SM BKN050
     FM171800 23014G22KT P6SM VCSH BKN060
     FM180000 25014G22KT P6SM BKN045 WS020/26035KT
     FM180600 27012G22KT P6SM BKN030=

USA.gov is the U.S. government's official web portal to all federal, state and local government web resources and services.